Time;durP1;ratioP1;P1;durP2;ratioP2;P2;SDS_P1;SDS_P2;PMS_P1;PMS_P2;Temp;Humidity;BMP_temperature;BMP_pressure;BME280_temperature;BME280_humidity;BME280_pressure;Samples;Min_cycle;Max_cycle;Signal;HPM_P1;HPM_P2
2021/12/14 00:00:00;;;;;;;23.98;16.80;;;;;;;6.05;100.00;99481.78;10475371;28;20056;-75
2021/12/14 00:05:05;;;;;;;21.50;16.75;;;;;;;6.02;100.00;99488.22;10476002;28;20760;-75
2021/12/14 00:10:27;;;;;;;22.42;16.50;;;;;;;6.00;100.00;99484.78;10474550;28;20041;-75
2021/12/14 00:15:30;;;;;;;20.42;15.43;;;;;;;5.94;100.00;99478.00;10475931;28;20062;-75
2021/12/14 00:20:37;;;;;;;19.20;14.80;;;;;;;5.92;100.00;99481.75;10473498;28;20139;-77
2021/12/14 00:25:43;;;;;;;15.13;12.60;;;;;;;5.88;100.00;99478.41;10477841;28;20493;-77
2021/12/14 00:30:49;;;;;;;18.50;13.27;;;;;;;5.86;100.00;99477.69;10455937;28;20541;-77
2021/12/14 00:35:54;;;;;;;15.93;12.23;;;;;;;5.82;100.00;99470.81;10477374;28;20055;-77
2021/12/14 00:41:00;;;;;;;15.68;12.05;;;;;;;5.77;100.00;99471.16;10482359;28;20044;-78
2021/12/14 00:46:03;;;;;;;14.65;11.40;;;;;;;5.74;100.00;99462.47;10463904;28;20063;-77
2021/12/14 00:51:09;;;;;;;11.85;10.55;;;;;;;5.67;100.00;99470.91;10459893;28;20416;-77
2021/12/14 00:56:13;;;;;;;12.80;10.20;;;;;;;5.65;100.00;99466.63;10469859;28;20059;-77
2021/12/14 01:01:21;;;;;;;12.02;10.68;;;;;;;5.64;100.00;99470.25;10464283;28;20048;-77
2021/12/14 01:06:31;;;;;;;12.07;10.70;;;;;;;5.59;100.00;99475.91;10467001;28;20571;-77
2021/12/14 01:11:41;;;;;;;13.95;11.45;;;;;;;5.55;100.00;99480.63;10468563;28;20075;-77
2021/12/14 01:16:53;;;;;;;9.05;8.15;;;;;;;5.49;100.00;99486.38;10453484;28;20047;-77
2021/12/14 01:22:32;;;;;;;11.20;9.10;;;;;;;5.48;100.00;99484.66;10455625;28;20049;-78
2021/12/14 01:27:44;;;;;;;10.13;8.85;;;;;;;5.50;100.00;99476.53;10471284;28;20068;-77
2021/12/14 01:32:53;;;;;;;11.95;10.63;;;;;;;5.48;100.00;99476.63;10471146;28;20501;-77
2021/12/14 01:38:05;;;;;;;15.10;13.50;;;;;;;5.47;100.00;99480.25;10472023;28;20089;-77
2021/12/14 01:43:09;;;;;;;15.50;13.88;;;;;;;5.47;100.00;99477.59;10459893;28;20064;-77
2021/12/14 01:48:13;;;;;;;17.48;13.93;;;;;;;5.46;100.00;99467.00;10449071;28;20409;-77
2021/12/14 01:53:40;;;;;;;15.30;13.20;;;;;;;5.42;100.00;99457.47;10454623;28;20045;-77
2021/12/14 01:58:47;;;;;;;14.20;12.73;;;;;;;5.39;100.00;99458.53;10446808;28;20044;-77
2021/12/14 02:03:55;;;;;;;15.43;12.95;;;;;;;5.39;100.00;99458.53;10469331;28;20047;-77
2021/12/14 02:09:04;;;;;;;14.15;12.65;;;;;;;5.36;100.00;99458.75;10470038;28;20486;-76
2021/12/14 02:14:08;;;;;;;17.50;12.82;;;;;;;5.33;100.00;99454.47;10464764;28;20049;-76
2021/12/14 02:19:14;;;;;;;9.43;8.43;;;;;;;5.32;100.00;99449.25;10450719;28;20044;-76
2021/12/14 02:24:21;;;;;;;4.65;4.10;;;;;;;5.28;100.00;99445.91;10463287;28;20043;-80
2021/12/14 02:29:33;;;;;;;9.80;6.72;;;;;;;5.34;100.00;99431.28;10464189;28;20052;-78
2021/12/14 02:34:39;;;;;;;11.95;10.15;;;;;;;5.33;100.00;99432.25;10463787;28;20470;-79
2021/12/14 02:40:00;;;;;;;13.90;11.05;;;;;;;5.33;100.00;99440.25;10468631;28;20044;-78
2021/12/14 02:45:06;;;;;;;12.85;11.45;;;;;;;5.33;100.00;99429.56;10462088;28;20068;-78
2021/12/14 02:50:11;;;;;;;13.73;11.10;;;;;;;5.31;100.00;99429.66;10479867;28;20049;-78
2021/12/14 02:55:20;;;;;;;11.77;10.57;;;;;;;5.29;100.00;99438.75;10477158;28;20041;-78
2021/12/14 03:00:27;;;;;;;9.90;7.55;;;;;;;5.30;100.00;99432.44;10472081;28;20520;-78
2021/12/14 03:05:37;;;;;;;9.88;8.90;;;;;;;5.26;100.00;99415.78;10461526;28;20044;-78
2021/12/14 03:10:58;;;;;;;10.00;8.88;;;;;;;5.27;100.00;99412.13;10462627;28;20048;-78
2021/12/14 03:16:06;;;;;;;6.60;5.93;;;;;;;5.21;100.00;99408.06;10457255;28;21358;-79
2021/12/14 03:21:12;;;;;;;8.23;7.43;;;;;;;5.22;100.00;99417.78;10476341;28;20158;-79
2021/12/14 03:26:19;;;;;;;8.52;7.65;;;;;;;5.23;100.00;99415.97;10472312;28;21233;-78
2021/12/14 03:31:31;;;;;;;12.13;9.50;;;;;;;5.18;100.00;99407.38;10472582;28;21003;-78
2021/12/14 03:36:37;;;;;;;12.55;9.98;;;;;;;5.17;100.00;99406.53;10483912;28;20060;-78
2021/12/14 03:41:45;;;;;;;10.35;9.32;;;;;;;5.15;100.00;99402.28;10504606;28;20033;-79
2021/12/14 03:46:54;;;;;;;11.88;10.68;;;;;;;5.14;100.00;99411.25;10458552;28;20425;-80
2021/12/14 03:51:59;;;;;;;12.27;11.05;;;;;;;5.11;100.00;99406.09;10465191;28;20052;-78
2021/12/14 03:57:05;;;;;;;12.05;10.77;;;;;;;5.06;100.00;99414.41;10465423;28;20048;-80
2021/12/14 04:02:11;;;;;;;5.10;4.60;;;;;;;5.04;100.00;99398.50;10480444;28;20056;-80
2021/12/14 04:07:19;;;;;;;8.82;5.07;;;;;;;5.04;100.00;99366.47;10456631;28;20064;-79
2021/12/14 04:12:33;;;;;;;7.75;6.32;;;;;;;5.07;100.00;99365.38;10469571;28;20420;-79
2021/12/14 04:17:38;;;;;;;6.45;5.70;;;;;;;5.06;100.00;99350.31;10456555;28;20519;-78
2021/12/14 04:22:45;;;;;;;5.03;3.13;;;;;;;5.04;100.00;99336.19;10476947;28;20067;-79
2021/12/14 04:27:52;;;;;;;4.03;3.63;;;;;;;5.05;100.00;99338.78;10462435;28;20727;-78
2021/12/14 04:33:05;;;;;;;7.68;6.38;;;;;;;5.06;100.00;99328.94;10458877;28;20116;-79
2021/12/14 04:38:15;;;;;;;9.05;7.90;;;;;;;5.04;100.00;99309.50;10459717;28;20045;-79
2021/12/14 04:54:05;;;;;;;8.15;7.35;;;;;;;5.02;100.00;99274.88;10467546;28;20052;-79
2021/12/14 04:59:14;;;;;;;8.07;7.05;;;;;;;5.00;100.00;99287.47;10467615;28;20040;-79
2021/12/14 05:04:21;;;;;;;8.52;7.68;;;;;;;4.99;100.00;99269.75;10452465;28;20040;-79
2021/12/14 05:09:29;;;;;;;7.70;6.90;;;;;;;5.01;100.00;99266.97;10453836;28;20057;-78
2021/12/14 05:14:43;;;;;;;8.05;7.25;;;;;;;5.00;100.00;99276.81;10456052;28;20044;-79
2021/12/14 05:19:49;;;;;;;8.10;7.13;;;;;;;4.98;100.00;99284.06;10466222;28;20512;-79
2021/12/14 05:24:56;;;;;;;9.32;7.45;;;;;;;4.97;100.00;99289.50;10448264;28;20048;-79
2021/12/14 05:30:08;;;;;;;8.65;7.43;;;;;;;4.97;100.00;99293.03;10475033;28;20043;-78
2021/12/14 05:35:20;;;;;;;9.25;7.45;;;;;;;4.96;100.00;99306.50;10455667;28;20155;-79
2021/12/14 05:40:42;;;;;;;8.27;7.45;;;;;;;4.94;100.00;99307.44;10478204;28;20041;-79
2021/12/14 05:45:47;;;;;;;;;;;;;;;4.89;100.00;99312.22;10458604;28;20044;-81
2021/12/14 05:50:56;;;;;;;8.40;7.15;;;;;;;4.93;100.00;99319.09;10459651;28;20049;-81
2021/12/14 05:56:02;;;;;;;8.68;7.18;;;;;;;4.92;100.00;99333.41;10474968;28;20068;-79
2021/12/14 06:01:13;;;;;;;8.77;7.63;;;;;;;4.89;100.00;99336.25;10452491;28;21632;-81
2021/12/14 06:06:22;;;;;;;9.90;8.47;;;;;;;4.89;100.00;99338.94;10465990;28;20773;-78
2021/12/14 06:11:28;;;;;;;10.20;7.93;;;;;;;4.89;100.00;99341.59;10455189;28;20056;-78
2021/12/14 06:16:36;;;;;;;10.23;7.97;;;;;;;4.90;100.00;99339.81;10452369;28;20057;-80
2021/12/14 06:21:40;;;;;;;11.25;8.20;;;;;;;4.90;100.00;99334.47;10473769;28;20448;-81
2021/12/14 06:26:45;;;;;;;11.73;8.98;;;;;;;4.91;100.00;99331.69;10471253;28;20044;-81
2021/12/14 06:31:52;;;;;;;12.32;8.35;;;;;;;4.92;100.00;99333.41;10498476;28;20047;-78
2021/12/14 06:37:53;;;;;;;10.63;9.10;;;;;;;4.95;100.00;99337.66;10456102;28;20143;-81
2021/12/14 06:43:00;;;;;;;16.38;13.43;;;;;;;4.95;100.00;99326.97;10452396;28;20677;-80
2021/12/14 06:48:08;;;;;;;17.10;14.63;;;;;;;4.98;100.00;99329.47;10462105;28;20080;-80
2021/12/14 06:53:14;;;;;;;12.35;10.93;;;;;;;4.99;100.00;99327.66;10452531;28;20798;-80
2021/12/14 06:58:54;;;;;;;12.45;9.90;;;;;;;4.99;100.00;99327.66;10429762;28;20063;-80
2021/12/14 07:04:18;;;;;;;12.07;9.98;;;;;;;4.99;100.00;99322.31;10453612;28;20110;-80
2021/12/14 07:09:26;;;;;;;13.48;10.38;;;;;;;5.00;100.00;99310.69;10453424;28;20048;-80
2021/12/14 07:14:39;;;;;;;14.88;11.13;;;;;;;5.00;100.00;99297.31;10451746;28;20048;-79
2021/12/14 07:19:47;;;;;;;14.52;10.02;;;;;;;5.00;100.00;99308.00;10462198;28;20068;-79
2021/12/14 07:24:59;;;;;;;11.65;10.20;;;;;;;4.99;100.00;99328.50;10462853;28;20082;-78
2021/12/14 07:30:13;;;;;;;13.85;9.88;;;;;;;4.98;100.00;99337.47;10463025;28;20044;-79
2021/12/14 07:35:35;;;;;;;12.45;10.73;;;;;;;4.98;100.00;99349.97;10463755;28;20559;-79
2021/12/14 07:40:42;;;;;;;13.18;10.18;;;;;;;4.98;100.00;99345.47;10478201;28;20047;-76
2021/12/14 07:45:46;;;;;;;10.52;9.40;;;;;;;5.00;100.00;99334.72;10475232;28;20124;-80
2021/12/14 07:50:54;;;;;;;11.95;10.15;;;;;;;5.00;100.00;99332.88;10472968;28;20044;-77
2021/12/14 07:55:58;;;;;;;12.10;9.52;;;;;;;4.99;100.00;99335.66;10477888;28;20042;-78
2021/12/14 08:01:01;;;;;;;13.50;9.30;;;;;;;5.03;100.00;99346.03;10474462;28;20045;-78
2021/12/14 08:06:09;;;;;;;12.23;9.65;;;;;;;5.05;100.00;99348.59;10470355;28;20099;-77
2021/12/14 08:11:30;;;;;;;11.55;8.98;;;;;;;5.02;100.00;99344.31;10500008;28;20114;-76
2021/12/14 08:16:41;;;;;;;11.35;9.45;;;;;;;4.99;100.00;99343.69;10509083;28;20040;-78
2021/12/14 08:21:46;;;;;;;13.50;9.90;;;;;;;5.03;100.00;99347.84;10505884;28;20056;-77
2021/12/14 08:26:51;;;;;;;11.32;9.65;;;;;;;5.03;100.00;99345.16;10498877;28;20519;-78
2021/12/14 08:31:57;;;;;;;13.23;10.85;;;;;;;5.00;100.00;99345.41;10458623;28;20108;-78
2021/12/14 08:37:07;;;;;;;11.30;9.50;;;;;;;5.04;100.00;99358.44;10471593;28;20048;-78
2021/12/14 08:42:17;;;;;;;11.60;9.30;;;;;;;5.02;100.00;99357.69;10466200;28;20053;-78
2021/12/14 08:47:32;;;;;;;12.35;10.77;;;;;;;5.06;100.00;99351.16;10453912;28;20056;-79
2021/12/14 08:52:37;;;;;;;12.57;10.85;;;;;;;5.13;100.00;99367.63;10478255;28;20041;-78
2021/12/14 08:57:42;;;;;;;12.18;10.32;;;;;;;5.15;100.00;99362.19;10481945;28;20044;-79
2021/12/14 09:02:48;;;;;;;11.55;9.82;;;;;;;5.17;100.00;99358.47;10477309;28;21260;-78
2021/12/14 09:07:52;;;;;;;13.68;10.70;;;;;;;5.24;100.00;99365.09;10474831;28;20448;-78
2021/12/14 09:13:02;;;;;;;18.23;11.15;;;;;;;5.32;100.00;99375.25;10474989;28;20174;-79
2021/12/14 09:18:06;;;;;;;13.80;11.63;;;;;;;5.41;100.00;99397.84;10457149;28;20136;-78
2021/12/14 09:23:18;;;;;;;13.90;9.88;;;;;;;5.48;100.00;99393.78;10501623;28;20032;-78
2021/12/14 09:28:25;;;;;;;13.45;10.40;;;;;;;5.55;100.00;99396.88;10473779;28;20143;-78
2021/12/14 09:33:30;;;;;;;12.50;10.30;;;;;;;5.60;100.00;99402.78;10471213;28;20044;-77
2021/12/14 09:38:40;;;;;;;11.73;9.60;;;;;;;5.63;100.00;99396.38;10471512;28;20123;-77
2021/12/14 09:43:45;;;;;;;11.52;9.55;;;;;;;5.67;100.00;99390.69;10451012;28;20459;-79
2021/12/14 09:48:51;;;;;;;11.45;9.27;;;;;;;5.71;100.00;99388.66;10452665;28;20533;-77
2021/12/14 09:53:58;;;;;;;12.10;9.00;;;;;;;5.70;100.00;99384.31;10468508;28;20064;-78
2021/12/14 09:59:03;;;;;;;11.93;9.88;;;;;;;5.72;100.00;99387.69;10470492;28;20058;-80
2021/12/14 10:04:10;;;;;;;11.40;10.13;;;;;;;5.68;100.00;99384.38;10474726;28;20037;-80
2021/12/14 10:09:22;;;;;;;12.18;10.77;;;;;;;5.69;100.00;99364.72;10476585;28;20045;-77
2021/12/14 10:14:29;;;;;;;14.48;11.73;;;;;;;5.71;100.00;99360.13;10476002;28;20094;-81
2021/12/14 10:19:33;;;;;;;13.32;11.77;;;;;;;5.68;100.00;99357.66;10460567;28;21019;-80
2021/12/14 10:24:38;;;;;;;18.83;13.20;;;;;;;5.67;100.00;99355.09;10472609;28;20132;-81
2021/12/14 10:29:42;;;;;;;16.63;13.30;;;;;;;5.65;100.00;99351.66;10476849;28;20048;-80
2021/12/14 10:34:48;;;;;;;17.75;14.10;;;;;;;5.64;100.00;99336.59;10475702;28;20047;-79
2021/12/14 10:45:18;;;;;;;20.52;15.10;;;;;;;5.64;100.00;99339.25;10475242;28;20294;-80
2021/12/14 10:50:24;;;;;;;20.52;16.15;;;;;;;5.66;100.00;99348.03;10458542;28;20136;-81
2021/12/14 10:55:35;;;;;;;23.30;17.90;;;;;;;5.63;100.00;99346.44;10455001;28;20718;-80
2021/12/14 11:00:45;;;;;;;25.08;17.35;;;;;;;5.63;100.00;99350.91;10476785;28;20048;-80
2021/12/14 11:05:52;;;;;;;21.98;16.20;;;;;;;5.64;100.00;99352.63;10481441;28;20048;-81
2021/12/14 11:10:57;;;;;;;25.73;17.92;;;;;;;5.64;100.00;99345.47;10480265;28;20076;-80
2021/12/14 11:16:00;;;;;;;24.20;17.90;;;;;;;5.70;100.00;99339.69;10463455;28;20409;-79
2021/12/14 11:21:07;;;;;;;27.67;19.30;;;;;;;5.76;100.00;99327.72;10480397;28;20044;-77
2021/12/14 11:26:15;;;;;;;24.60;18.10;;;;;;;5.83;100.00;99333.47;10459518;28;20109;-79
2021/12/14 11:31:22;;;;;;;24.95;18.73;;;;;;;5.90;100.00;99326.72;10458644;28;20045;-80
2021/12/14 11:36:32;;;;;;;24.90;17.92;;;;;;;5.91;100.00;99331.09;10466254;28;20462;-82
2021/12/14 11:41:44;;;;;;;29.00;19.23;;;;;;;5.94;100.00;99333.56;10484801;28;20115;-81
2021/12/14 11:47:07;;;;;;;26.90;18.40;;;;;;;6.00;100.00;99340.34;10467139;28;20051;-78
2021/12/14 11:52:11;;;;;;;25.75;18.13;;;;;;;6.03;100.00;99339.25;10461695;28;20064;-77
2021/12/14 11:57:17;;;;;;;25.52;17.77;;;;;;;5.99;100.00;99319.88;10476190;28;20048;-79
2021/12/14 12:02:20;;;;;;;25.70;17.13;;;;;;;5.96;100.00;99320.94;10477889;28;20036;-77
2021/12/14 12:12:46;;;;;;;25.77;18.23;;;;;;;5.96;100.00;99334.31;10459748;28;20068;-79
2021/12/14 12:17:53;;;;;;;29.40;18.48;;;;;;;5.96;100.00;99337.00;10497824;28;20048;-80
2021/12/14 12:22:59;;;;;;;28.80;19.80;;;;;;;5.96;100.00;99346.81;10473369;28;20420;-80
2021/12/14 12:28:06;;;;;;;28.10;18.90;;;;;;;5.95;100.00;99343.31;10474601;28;20059;-79
2021/12/14 12:33:16;;;;;;;28.17;18.80;;;;;;;5.97;100.00;99335.16;10445774;28;20060;-78
2021/12/14 12:38:34;;;;;;;29.23;19.85;;;;;;;6.00;100.00;99326.97;10472429;28;21161;-79
2021/12/14 12:43:45;;;;;;;27.00;18.65;;;;;;;6.00;100.00;99321.59;10474113;28;20064;-79
2021/12/14 12:48:56;;;;;;;25.10;17.93;;;;;;;6.02;100.00;99306.31;10464390;28;20064;-82
2021/12/14 12:54:14;;;;;;;29.17;19.30;;;;;;;6.06;100.00;99309.63;10464871;28;20049;-79
2021/12/14 12:59:38;;;;;;;27.25;18.25;;;;;;;6.08;100.00;99308.53;10480931;28;20045;-79
2021/12/14 13:04:43;;;;;;;25.30;17.05;;;;;;;6.05;100.00;99307.91;10457583;28;20052;-82
2021/12/14 13:10:00;;;;;;;25.73;17.42;;;;;;;6.06;100.00;99307.78;10476639;28;20378;-80
2021/12/14 13:15:26;;;;;;;23.90;16.30;;;;;;;6.06;100.00;99313.13;10472551;28;20040;-81
2021/12/14 13:20:30;;;;;;;22.85;16.33;;;;;;;6.08;100.00;99315.72;10460094;28;20057;-80
2021/12/14 13:25:34;;;;;;;23.27;15.60;;;;;;;6.07;100.00;99335.41;10468325;28;20600;-81
2021/12/14 13:30:42;;;;;;;26.30;17.50;;;;;;;6.09;100.00;99337.00;10471519;28;20158;-76
2021/12/14 13:35:46;;;;;;;25.83;17.52;;;;;;;6.08;100.00;99343.31;10457436;28;20037;-79
2021/12/14 13:40:53;;;;;;;23.20;17.35;;;;;;;6.10;100.00;99343.22;10479708;28;21339;-79
2021/12/14 13:46:02;;;;;;;25.38;17.52;;;;;;;6.09;100.00;99337.00;10478525;28;20075;-80
2021/12/14 13:51:10;;;;;;;23.58;16.55;;;;;;;6.09;100.00;99358.41;10479292;28;20068;-81
2021/12/14 13:56:17;;;;;;;23.90;16.83;;;;;;;6.11;100.00;99352.97;10456796;28;20164;-82
2021/12/14 14:01:25;;;;;;;25.13;16.35;;;;;;;6.05;100.00;99367.63;10477118;28;20063;-80
2021/12/14 14:06:30;;;;;;;21.85;15.65;;;;;;;6.04;100.00;99363.25;10477851;28;20045;-80
2021/12/14 14:11:37;;;;;;;22.00;15.63;;;;;;;6.00;100.00;99364.41;10461539;28;20155;-80
2021/12/14 14:16:49;;;;;;;23.27;16.10;;;;;;;6.02;100.00;99354.47;10462262;28;20127;-82
2021/12/14 14:21:55;;;;;;;24.55;17.95;;;;;;;5.99;100.00;99355.53;10482504;28;20107;-81
2021/12/14 14:26:58;;;;;;;24.80;17.80;;;;;;;6.00;100.00;99359.91;10464343;28;20087;-81
2021/12/14 14:32:12;;;;;;;22.35;16.70;;;;;;;5.96;100.00;99370.91;10463904;28;20048;-80
2021/12/14 14:37:17;;;;;;;23.55;16.60;;;;;;;5.95;100.00;99380.75;10472629;28;20041;-82
2021/12/14 14:42:28;;;;;;;23.88;15.85;;;;;;;5.98;100.00;99379.69;10473526;28;20044;-80
2021/12/14 14:47:37;;;;;;;21.30;15.13;;;;;;;5.94;100.00;99384.41;10481131;28;20131;-80
2021/12/14 14:52:43;;;;;;;23.73;15.48;;;;;;;5.96;100.00;99379.78;10477286;28;20040;-81
2021/12/14 14:57:58;;;;;;;20.60;14.27;;;;;;;5.96;100.00;99385.16;10460742;28;20399;-80
2021/12/14 15:03:06;;;;;;;22.75;15.10;;;;;;;5.94;100.00;99387.06;10467425;28;20128;-82
2021/12/14 15:08:16;;;;;;;23.55;15.35;;;;;;;5.91;100.00;99394.47;10491305;28;20056;-82
2021/12/14 15:13:33;;;;;;;21.92;14.55;;;;;;;5.86;100.00;99387.59;10474589;28;20097;-81
2021/12/14 15:19:10;;;;;;;22.02;15.18;;;;;;;5.81;100.00;99389.75;10458490;28;20504;-81
2021/12/14 15:24:46;;;;;;;23.35;15.68;;;;;;;5.78;100.00;99391.75;10455191;28;20064;-77
2021/12/14 15:30:04;;;;;;;22.35;14.70;;;;;;;5.78;100.00;99405.13;10419508;28;20135;-78
2021/12/14 15:35:11;;;;;;;22.80;14.73;;;;;;;5.79;100.00;99420.22;10466169;28;20052;-77
2021/12/14 15:40:37;;;;;;;21.60;14.88;;;;;;;5.78;100.00;99432.75;10476406;28;20054;-80
2021/12/14 15:45:43;;;;;;;23.23;15.68;;;;;;;5.76;100.00;99433.81;10469872;28;20055;-79
2021/12/14 15:51:12;;;;;;;24.55;16.20;;;;;;;5.77;100.00;99438.19;10480535;28;20342;-80
2021/12/14 15:56:26;;;;;;;27.88;17.73;;;;;;;5.74;100.00;99430.41;10461183;28;20138;-79
2021/12/14 16:01:34;;;;;;;31.27;19.85;;;;;;;5.69;100.00;99434.22;10476784;28;20049;-77
2021/12/14 16:06:42;;;;;;;29.85;18.98;;;;;;;5.67;100.00;99446.84;10456203;28;20091;-76
2021/12/14 16:11:55;;;;;;;30.90;19.20;;;;;;;5.63;100.00;99445.34;10422199;28;20394;-79
2021/12/14 16:17:03;;;;;;;27.20;17.65;;;;;;;5.60;100.00;99450.03;10437944;28;20049;-79
2021/12/14 16:22:15;;;;;;;28.13;16.77;;;;;;;5.63;100.00;99452.50;10417764;28;20156;-76
2021/12/14 16:27:22;;;;;;;;;;;;;;;5.58;100.00;99455.50;10423161;28;20044;-77
2021/12/14 16:32:26;;;;;;;24.15;15.48;;;;;;;5.64;100.00;99456.91;10430017;28;20192;-77
2021/12/14 16:37:36;;;;;;;24.70;15.15;;;;;;;5.63;100.00;99450.72;10426200;28;20762;-77
2021/12/14 16:42:39;;;;;;;26.40;15.07;;;;;;;5.62;100.00;99454.34;10441511;28;20037;-78
2021/12/14 16:47:48;;;;;;;26.85;15.38;;;;;;;5.64;100.00;99446.19;10437345;28;20417;-78
2021/12/14 16:52:56;;;;;;;26.35;15.35;;;;;;;5.65;100.00;99456.78;10418048;28;20060;-78
2021/12/14 16:58:04;;;;;;;25.73;15.07;;;;;;;5.67;100.00;99451.34;10435900;28;20109;-77
2021/12/14 17:03:07;;;;;;;27.27;15.27;;;;;;;5.68;100.00;99448.56;10441828;28;20175;-77
2021/12/14 17:08:15;;;;;;;28.80;15.73;;;;;;;5.69;100.00;99449.44;10456682;28;20072;-83
2021/12/14 17:13:23;;;;;;;27.60;16.48;;;;;;;5.68;100.00;99448.56;10481237;28;20040;-78
2021/12/14 17:18:30;;;;;;;29.50;17.50;;;;;;;5.69;100.00;99444.09;10464539;28;20056;-77
2021/12/14 17:23:39;;;;;;;28.63;16.75;;;;;;;5.69;100.00;99450.28;10459843;28;20079;-81
2021/12/14 17:28:47;;;;;;;29.75;17.30;;;;;;;5.67;100.00;99457.53;10478502;28;20064;-80
2021/12/14 17:33:53;;;;;;;32.83;19.00;;;;;;;5.65;100.00;99463.97;10463023;28;20120;-79
2021/12/14 17:39:07;;;;;;;34.83;18.42;;;;;;;5.64;100.00;99462.25;10479798;28;20184;-79
2021/12/14 17:44:15;;;;;;;29.65;17.98;;;;;;;5.63;100.00;99466.75;10475277;28;20104;-77
2021/12/14 17:49:19;;;;;;;31.00;18.42;;;;;;;5.63;100.00;99471.22;10501063;28;20052;-79
2021/12/14 17:54:29;;;;;;;29.80;17.90;;;;;;;5.62;100.00;99474.84;10504779;28;20041;-79
2021/12/14 17:59:37;;;;;;;29.42;17.95;;;;;;;5.62;100.00;99480.19;10492914;28;20056;-80
2021/12/14 18:04:41;;;;;;;30.30;18.02;;;;;;;5.61;100.00;99478.47;10502406;28;20521;-78
2021/12/14 18:09:49;;;;;;;30.25;18.75;;;;;;;5.58;100.00;99486.72;10477716;28;20062;-79
2021/12/14 18:14:56;;;;;;;31.80;19.10;;;;;;;5.55;100.00;99499.34;10473796;28;20048;-77
2021/12/14 18:20:02;;;;;;;33.45;20.75;;;;;;;5.55;100.00;99501.13;10489690;28;20040;-78
2021/12/14 18:25:13;;;;;;;32.58;20.05;;;;;;;5.53;100.00;99511.94;10486851;28;20075;-80
2021/12/14 18:30:21;;;;;;;33.25;19.92;;;;;;;5.50;100.00;99520.16;10483053;28;20430;-80
2021/12/14 18:35:30;;;;;;;34.70;20.30;;;;;;;5.49;100.00;99533.63;10485924;28;20045;-79
2021/12/14 18:40:44;;;;;;;38.28;21.77;;;;;;;5.48;100.00;99529.25;10479693;28;20044;-78
2021/12/14 18:45:58;;;;;;;38.08;21.35;;;;;;;5.47;100.00;99528.38;10478005;28;20044;-79
2021/12/14 18:51:02;;;;;;;37.72;20.05;;;;;;;5.43;100.00;99518.88;10479124;28;20549;-82
2021/12/14 18:56:15;;;;;;;34.22;20.25;;;;;;;5.40;100.00;99529.75;10476333;28;20047;-79
2021/12/14 19:01:22;;;;;;;32.65;19.15;;;;;;;5.35;100.00;99532.72;10480257;28;20049;-81
2021/12/14 19:06:29;;;;;;;31.58;18.83;;;;;;;5.31;100.00;99539.22;10473820;28;20406;-76
2021/12/14 19:11:37;;;;;;;31.50;18.05;;;;;;;5.30;100.00;99536.66;10460352;28;20083;-77
2021/12/14 19:16:43;;;;;;;34.13;18.83;;;;;;;5.27;100.00;99544.88;10468061;28;20036;-76
2021/12/14 19:21:46;;;;;;;35.28;20.30;;;;;;;5.26;100.00;99544.03;10479062;28;20483;-75
2021/12/14 19:26:55;;;;;;;36.83;20.80;;;;;;;5.27;100.00;99540.41;10472073;28;20427;-77
2021/12/14 19:32:01;;;;;;;37.17;22.48;;;;;;;5.25;100.00;99543.16;10481365;28;20075;-79
2021/12/14 19:37:07;;;;;;;41.55;24.05;;;;;;;5.24;100.00;99543.25;10490623;28;20096;-81
2021/12/14 19:42:14;;;;;;;40.95;23.73;;;;;;;5.20;100.00;99539.06;10491259;28;20166;-81
2021/12/14 19:47:21;;;;;;;37.70;22.00;;;;;;;5.17;100.00;99550.81;10480729;28;20492;-82
2021/12/14 19:52:25;;;;;;;33.70;20.52;;;;;;;5.14;100.00;99561.69;10497454;28;20072;-79
2021/12/14 19:57:33;;;;;;;42.50;20.45;;;;;;;5.08;100.00;99568.28;10498366;28;20036;-82
2021/12/14 20:02:38;;;;;;;35.13;19.65;;;;;;;5.10;100.00;99570.88;10477943;28;21020;-80
2021/12/14 20:07:43;;;;;;;46.85;23.02;;;;;;;5.11;100.00;99566.38;10506611;28;20060;-81
2021/12/14 20:12:55;;;;;;;40.28;22.50;;;;;;;5.11;100.00;99558.34;10523263;28;20111;-82
2021/12/14 20:18:04;;;;;;;41.42;23.10;;;;;;;5.11;100.00;99571.72;10520461;28;20040;-85
2021/12/14 20:23:12;;;;;;;43.35;22.70;;;;;;;5.13;100.00;99567.13;10496691;28;20052;-82
2021/12/14 20:28:22;;;;;;;44.90;21.88;;;;;;;5.14;100.00;99572.38;10486462;28;20150;-82
2021/12/14 20:33:29;;;;;;;43.33;22.73;;;;;;;5.13;100.00;99559.97;10480335;28;20059;-80
2021/12/14 20:38:38;;;;;;;38.10;20.92;;;;;;;5.12;100.00;99563.59;10482565;28;20109;-77
2021/12/14 20:43:51;;;;;;;40.80;21.45;;;;;;;5.12;100.00;99563.59;10483303;28;20044;-79
2021/12/14 20:48:56;;;;;;;38.65;20.02;;;;;;;5.11;100.00;99564.56;10496788;28;20044;-80
2021/12/14 20:54:03;;;;;;;42.08;20.98;;;;;;;5.04;100.00;99569.44;10514699;28;20058;-80
2021/12/14 20:59:13;;;;;;;42.05;21.65;;;;;;;5.01;100.00;99566.09;10477615;28;20171;-80
2021/12/14 21:04:23;;;;;;;42.38;22.30;;;;;;;4.99;100.00;99565.34;10492036;28;20052;-81
2021/12/14 21:09:30;;;;;;;43.03;21.67;;;;;;;4.94;100.00;99565.63;10501112;28;20040;-79
2021/12/14 21:14:42;;;;;;;39.00;19.83;;;;;;;4.91;100.00;99572.03;10480786;28;20052;-80
2021/12/14 21:19:48;;;;;;;37.90;19.48;;;;;;;4.83;100.00;99566.31;10477546;28;20049;-80
2021/12/14 21:24:55;;;;;;;34.47;19.25;;;;;;;4.79;100.00;99572.78;10477525;28;20076;-79
2021/12/14 21:30:06;;;;;;;39.58;19.73;;;;;;;4.74;100.00;99570.41;10498567;28;20068;-79
2021/12/14 21:35:35;;;;;;;39.28;19.83;;;;;;;4.70;100.00;99570.69;10494895;28;20040;-80
2021/12/14 21:40:48;;;;;;;31.95;17.60;;;;;;;4.65;100.00;99584.34;10474600;28;20589;-81
2021/12/14 21:45:56;;;;;;;33.95;17.90;;;;;;;4.61;100.00;99594.34;10459870;28;20417;-81
2021/12/14 21:50:59;;;;;;;37.88;19.45;;;;;;;4.59;100.00;99593.59;10478828;28;20087;-79
2021/12/14 21:56:02;;;;;;;40.35;19.27;;;;;;;4.57;100.00;99590.16;10457942;28;20105;-81
2021/12/14 22:01:07;;;;;;;40.45;18.77;;;;;;;4.57;100.00;99594.63;10479471;28;20417;-81
2021/12/14 22:06:14;;;;;;;41.63;20.15;;;;;;;4.55;100.00;99601.88;10453534;28;20066;-80
2021/12/14 22:11:17;;;;;;;48.90;20.98;;;;;;;4.49;100.00;99603.09;10469208;28;20198;-81
2021/12/14 22:16:37;;;;;;;46.28;21.27;;;;;;;4.43;100.00;99612.34;10470209;28;20076;-80
2021/12/14 22:21:40;;;;;;;50.95;21.88;;;;;;;4.39;100.00;99623.28;10473551;28;20041;-79
2021/12/14 22:26:43;;;;;;;54.40;23.00;;;;;;;4.36;100.00;99623.47;10486225;28;20041;-79
2021/12/14 22:31:48;;;;;;;47.63;22.27;;;;;;;4.33;100.00;99624.53;10487325;28;20119;-79
2021/12/14 22:36:51;;;;;;;60.10;23.13;;;;;;;4.31;100.00;99627.25;10484090;28;20111;-78
2021/12/14 22:42:13;;;;;;;47.05;21.08;;;;;;;4.27;100.00;99620.41;10480229;28;20135;-80
2021/12/14 22:47:21;;;;;;;46.67;20.98;;;;;;;4.21;100.00;99625.25;10488097;28;20037;-80
2021/12/14 22:52:27;;;;;;;39.00;19.08;;;;;;;4.13;100.00;99615.88;10493765;28;20151;-80
2021/12/14 22:57:31;;;;;;;36.10;17.98;;;;;;;4.07;100.00;99612.72;10491969;28;20060;-79
2021/12/14 23:02:36;;;;;;;37.67;18.10;;;;;;;4.03;100.00;99613.88;10492138;28;20045;-79
2021/12/14 23:07:39;;;;;;;38.85;19.38;;;;;;;3.97;100.00;99613.25;10464836;28;20048;-81
2021/12/14 23:12:46;;;;;;;42.28;19.60;;;;;;;3.93;100.00;99610.88;10481201;28;20040;-80
2021/12/14 23:18:06;;;;;;;43.78;20.23;;;;;;;3.90;100.00;99611.91;10480116;28;20116;-81
2021/12/14 23:23:10;;;;;;;35.75;18.20;;;;;;;3.87;100.00;99611.25;10460110;28;20142;-80
2021/12/14 23:28:14;;;;;;;33.92;17.98;;;;;;;3.82;100.00;99614.19;10483244;28;20055;-80
2021/12/14 23:33:24;;;;;;;35.63;18.10;;;;;;;3.77;100.00;99614.41;10482143;28;20047;-80
2021/12/14 23:38:29;;;;;;;38.63;19.02;;;;;;;3.75;100.00;99607.47;10482903;28;20536;-80
2021/12/14 23:43:35;;;;;;;40.42;19.92;;;;;;;3.74;100.00;99606.63;10479939;28;20064;-80
2021/12/14 23:48:41;;;;;;;37.92;18.67;;;;;;;3.75;100.00;99618.13;10478989;28;20072;-80